Terminal Aerodrome Forecast
Issued by NWS Jackson, MS

Home | Current Version | Previous Version | Text Only | Print | Product List | Glossary On
Versions: 1 2 3 4 5 6 7 8 9 10 11 12 13 14 15 16 17 18 19 20 21
363
FTUS44 KJAN 240530
TAFGLH
TAF
KGLH 240530Z 2406/2506 19008KT P6SM SKC
     FM241300 19012KT P6SM OVC025
     FM241600 20016G22KT P6SM BKN050
     FM250000 30012KT P6SM BKN050=

USA.gov is the U.S. government's official web portal to all federal, state and local government web resources and services.